sensor_id;sensor_type;location;lat;lon;timestamp;temperature;humidity
47174;DHT22;36730;49.036;9.094;2023-04-25T00:00:15;23.30;53.70
47174;DHT22;36730;49.036;9.094;2023-04-25T00:02:40;23.30;53.70
47174;DHT22;36730;49.036;9.094;2023-04-25T00:05:06;23.30;53.60
47174;DHT22;36730;49.036;9.094;2023-04-25T00:07:33;23.30;53.70
47174;DHT22;36730;49.036;9.094;2023-04-25T00:09:58;23.20;53.50
47174;DHT22;36730;49.036;9.094;2023-04-25T00:12:24;23.20;53.60
47174;DHT22;36730;49.036;9.094;2023-04-25T00:14:49;23.30;53.60
47174;DHT22;36730;49.036;9.094;2023-04-25T00:17:15;23.20;53.60
47174;DHT22;36730;49.036;9.094;2023-04-25T00:19:42;23.20;53.60
47174;DHT22;36730;49.036;9.094;2023-04-25T00:22:07;23.20;53.60
47174;DHT22;36730;49.036;9.094;2023-04-25T00:24:33;23.20;53.60
47174;DHT22;36730;49.036;9.094;2023-04-25T00:26:58;23.20;53.40
47174;DHT22;36730;49.036;9.094;2023-04-25T00:29:24;23.10;53.60
47174;DHT22;36730;49.036;9.094;2023-04-25T00:31:49;23.20;53.60
47174;DHT22;36730;49.036;9.094;2023-04-25T00:34:14;23.20;53.60
47174;DHT22;36730;49.036;9.094;2023-04-25T00:36:40;23.10;53.50
47174;DHT22;36730;49.036;9.094;2023-04-25T00:39:05;23.10;53.60
47174;DHT22;36730;49.036;9.094;2023-04-25T00:41:31;23.10;53.60
47174;DHT22;36730;49.036;9.094;2023-04-25T00:43:57;23.10;53.60
47174;DHT22;36730;49.036;9.094;2023-04-25T00:46:24;23.10;53.50
47174;DHT22;36730;49.036;9.094;2023-04-25T00:48:50;23.10;53.60
47174;DHT22;36730;49.036;9.094;2023-04-25T00:51:24;23.10;53.50
47174;DHT22;36730;49.036;9.094;2023-04-25T00:53:50;23.10;53.70
47174;DHT22;36730;49.036;9.094;2023-04-25T00:56:16;23.10;53.80
47174;DHT22;36730;49.036;9.094;2023-04-25T00:58:42;23.10;53.50
47174;DHT22;36730;49.036;9.094;2023-04-25T01:01:08;23.00;53.60
47174;DHT22;36730;49.036;9.094;2023-04-25T01:03:34;23.10;53.60
47174;DHT22;36730;49.036;9.094;2023-04-25T01:06:09;23.10;53.50
47174;DHT22;36730;49.036;9.094;2023-04-25T01:08:35;23.00;53.40
47174;DHT22;36730;49.036;9.094;2023-04-25T01:11:01;23.00;53.40
47174;DHT22;36730;49.036;9.094;2023-04-25T01:13:26;23.00;53.40
47174;DHT22;36730;49.036;9.094;2023-04-25T01:15:52;23.00;53.40
47174;DHT22;36730;49.036;9.094;2023-04-25T01:18:19;23.00;53.50
47174;DHT22;36730;49.036;9.094;2023-04-25T01:20:46;23.00;53.40
47174;DHT22;36730;49.036;9.094;2023-04-25T01:23:11;23.00;53.40
47174;DHT22;36730;49.036;9.094;2023-04-25T01:25:37;23.00;53.30
47174;DHT22;36730;49.036;9.094;2023-04-25T01:28:03;23.00;53.40
47174;DHT22;36730;49.036;9.094;2023-04-25T01:30:29;23.00;53.40
47174;DHT22;36730;49.036;9.094;2023-04-25T01:32:55;23.00;53.40
47174;DHT22;36730;49.036;9.094;2023-04-25T01:35:21;22.90;53.30
47174;DHT22;36730;49.036;9.094;2023-04-25T01:37:47;23.00;53.40
47174;DHT22;36730;49.036;9.094;2023-04-25T01:40:12;22.90;53.20
47174;DHT22;36730;49.036;9.094;2023-04-25T01:42:39;22.90;53.30
47174;DHT22;36730;49.036;9.094;2023-04-25T01:45:06;22.90;53.30
47174;DHT22;36730;49.036;9.094;2023-04-25T01:47:32;22.90;53.30
47174;DHT22;36730;49.036;9.094;2023-04-25T01:49:57;22.90;53.30
47174;DHT22;36730;49.036;9.094;2023-04-25T01:52:23;22.90;53.30
47174;DHT22;36730;49.036;9.094;2023-04-25T01:54:49;22.90;53.30
47174;DHT22;36730;49.036;9.094;2023-04-25T01:57:15;22.90;53.30
47174;DHT22;36730;49.036;9.094;2023-04-25T01:59:41;22.80;53.30
47174;DHT22;36730;49.036;9.094;2023-04-25T02:02:07;22.80;53.30
47174;DHT22;36730;49.036;9.094;2023-04-25T02:04:33;22.80;53.30
47174;DHT22;36730;49.036;9.094;2023-04-25T02:06:58;22.80;53.30
47174;DHT22;36730;49.036;9.094;2023-04-25T02:09:24;22.90;53.20
47174;DHT22;36730;49.036;9.094;2023-04-25T02:11:49;22.80;53.20
47174;DHT22;36730;49.036;9.094;2023-04-25T02:14:15;22.80;53.30
47174;DHT22;36730;49.036;9.094;2023-04-25T02:16:40;22.80;53.50
47174;DHT22;36730;49.036;9.094;2023-04-25T02:19:06;22.80;53.40
47174;DHT22;36730;49.036;9.094;2023-04-25T02:21:31;22.80;53.40
47174;DHT22;36730;49.036;9.094;2023-04-25T02:23:57;22.80;53.40
47174;DHT22;36730;49.036;9.094;2023-04-25T02:26:23;22.80;53.40
47174;DHT22;36730;49.036;9.094;2023-04-25T02:28:52;22.80;53.30
47174;DHT22;36730;49.036;9.094;2023-04-25T02:31:17;22.70;53.40
47174;DHT22;36730;49.036;9.094;2023-04-25T02:33:43;22.80;53.50
47174;DHT22;36730;49.036;9.094;2023-04-25T02:36:08;22.70;53.40
47174;DHT22;36730;49.036;9.094;2023-04-25T02:38:34;22.70;53.30
47174;DHT22;36730;49.036;9.094;2023-04-25T02:40:59;22.70;53.40
47174;DHT22;36730;49.036;9.094;2023-04-25T02:43:25;22.70;53.50
47174;DHT22;36730;49.036;9.094;2023-04-25T02:45:50;22.70;53.50
47174;DHT22;36730;49.036;9.094;2023-04-25T02:48:16;22.70;53.50
47174;DHT22;36730;49.036;9.094;2023-04-25T02:50:41;22.70;53.50
47174;DHT22;36730;49.036;9.094;2023-04-25T02:53:07;22.70;53.50
47174;DHT22;36730;49.036;9.094;2023-04-25T02:55:32;22.70;53.50
47174;DHT22;36730;49.036;9.094;2023-04-25T02:57:58;22.70;53.50
47174;DHT22;36730;49.036;9.094;2023-04-25T03:00:23;22.70;53.60
47174;DHT22;36730;49.036;9.094;2023-04-25T03:02:50;22.70;53.40
47174;DHT22;36730;49.036;9.094;2023-04-25T03:05:16;22.70;53.50
47174;DHT22;36730;49.036;9.094;2023-04-25T03:07:42;22.60;53.50
47174;DHT22;36730;49.036;9.094;2023-04-25T03:10:09;22.60;53.60
47174;DHT22;36730;49.036;9.094;2023-04-25T03:12:34;22.60;53.50
47174;DHT22;36730;49.036;9.094;2023-04-25T03:15:00;22.60;53.50
47174;DHT22;36730;49.036;9.094;2023-04-25T03:17:26;22.60;53.40
47174;DHT22;36730;49.036;9.094;2023-04-25T03:19:51;22.60;53.50
47174;DHT22;36730;49.036;9.094;2023-04-25T03:22:17;22.60;53.50
47174;DHT22;36730;49.036;9.094;2023-04-25T03:24:42;22.70;53.50
47174;DHT22;36730;49.036;9.094;2023-04-25T03:27:08;22.60;53.50
47174;DHT22;36730;49.036;9.094;2023-04-25T03:29:33;22.70;53.40
47174;DHT22;36730;49.036;9.094;2023-04-25T03:31:59;22.70;53.50
47174;DHT22;36730;49.036;9.094;2023-04-25T03:34:24;22.60;53.30
47174;DHT22;36730;49.036;9.094;2023-04-25T03:36:51;22.70;53.30
47174;DHT22;36730;49.036;9.094;2023-04-25T03:39:16;22.60;53.60
47174;DHT22;36730;49.036;9.094;2023-04-25T03:41:42;22.60;53.50
47174;DHT22;36730;49.036;9.094;2023-04-25T03:44:07;22.60;53.50
47174;DHT22;36730;49.036;9.094;2023-04-25T03:46:33;22.60;53.40
47174;DHT22;36730;49.036;9.094;2023-04-25T03:48:58;22.70;53.60
47174;DHT22;36730;49.036;9.094;2023-04-25T03:51:24;22.60;53.30
47174;DHT22;36730;49.036;9.094;2023-04-25T03:53:51;22.60;53.40
47174;DHT22;36730;49.036;9.094;2023-04-25T03:56:16;22.60;53.50
47174;DHT22;36730;49.036;9.094;2023-04-25T03:58:42;22.70;53.50
47174;DHT22;36730;49.036;9.094;2023-04-25T04:01:07;22.60;53.40
47174;DHT22;36730;49.036;9.094;2023-04-25T04:03:33;22.70;53.70
47174;DHT22;36730;49.036;9.094;2023-04-25T04:05:59;22.70;53.60
47174;DHT22;36730;49.036;9.094;2023-04-25T04:08:25;22.70;53.50
47174;DHT22;36730;49.036;9.094;2023-04-25T04:10:50;22.70;53.50
47174;DHT22;36730;49.036;9.094;2023-04-25T04:13:16;22.70;53.50
47174;DHT22;36730;49.036;9.094;2023-04-25T04:15:41;22.70;53.80
47174;DHT22;36730;49.036;9.094;2023-04-25T04:18:07;22.70;53.60
47174;DHT22;36730;49.036;9.094;2023-04-25T04:20:32;22.70;53.90
47174;DHT22;36730;49.036;9.094;2023-04-25T04:22:58;22.70;54.20
47174;DHT22;36730;49.036;9.094;2023-04-25T04:25:23;22.70;53.90
47174;DHT22;36730;49.036;9.094;2023-04-25T04:27:50;22.70;54.40
47174;DHT22;36730;49.036;9.094;2023-04-25T04:30:17;22.70;54.50
47174;DHT22;36730;49.036;9.094;2023-04-25T04:32:42;22.70;54.30
47174;DHT22;36730;49.036;9.094;2023-04-25T04:35:08;22.70;54.90
47174;DHT22;36730;49.036;9.094;2023-04-25T04:37:34;22.70;54.60
47174;DHT22;36730;49.036;9.094;2023-04-25T04:39:59;22.70;55.00
47174;DHT22;36730;49.036;9.094;2023-04-25T04:42:30;22.70;55.20
47174;DHT22;36730;49.036;9.094;2023-04-25T04:44:56;22.80;55.50
47174;DHT22;36730;49.036;9.094;2023-04-25T04:47:24;22.80;55.50
47174;DHT22;36730;49.036;9.094;2023-04-25T04:49:50;22.80;55.60
47174;DHT22;36730;49.036;9.094;2023-04-25T04:52:16;22.80;55.20
47174;DHT22;36730;49.036;9.094;2023-04-25T04:54:41;22.80;56.00
47174;DHT22;36730;49.036;9.094;2023-04-25T04:57:07;22.80;55.50
47174;DHT22;36730;49.036;9.094;2023-04-25T04:59:32;22.80;57.00
47174;DHT22;36730;49.036;9.094;2023-04-25T05:01:58;22.90;56.60
47174;DHT22;36730;49.036;9.094;2023-04-25T05:04:23;22.80;56.20
47174;DHT22;36730;49.036;9.094;2023-04-25T05:06:49;22.90;56.40
47174;DHT22;36730;49.036;9.094;2023-04-25T05:09:14;22.90;56.70
47174;DHT22;36730;49.036;9.094;2023-04-25T05:11:40;22.90;56.90
47174;DHT22;36730;49.036;9.094;2023-04-25T05:14:08;22.90;57.30
47174;DHT22;36730;49.036;9.094;2023-04-25T05:16:34;22.90;56.60
47174;DHT22;36730;49.036;9.094;2023-04-25T05:19:00;22.90;56.80
47174;DHT22;36730;49.036;9.094;2023-04-25T05:21:25;23.00;56.90
47174;DHT22;36730;49.036;9.094;2023-04-25T05:23:53;23.00;57.20
47174;DHT22;36730;49.036;9.094;2023-04-25T05:26:18;22.90;57.20
47174;DHT22;36730;49.036;9.094;2023-04-25T05:28:44;23.00;57.50
47174;DHT22;36730;49.036;9.094;2023-04-25T05:31:09;22.90;57.70
47174;DHT22;36730;49.036;9.094;2023-04-25T05:33:35;23.00;58.00
47174;DHT22;36730;49.036;9.094;2023-04-25T05:36:01;23.00;57.60
47174;DHT22;36730;49.036;9.094;2023-04-25T05:38:26;23.00;57.70
47174;DHT22;36730;49.036;9.094;2023-04-25T05:40:51;23.10;57.80
47174;DHT22;36730;49.036;9.094;2023-04-25T05:43:17;23.10;57.50
47174;DHT22;36730;49.036;9.094;2023-04-25T05:45:43;23.10;57.50
47174;DHT22;36730;49.036;9.094;2023-04-25T05:48:08;23.10;57.50
47174;DHT22;36730;49.036;9.094;2023-04-25T05:50:33;23.10;57.20
47174;DHT22;36730;49.036;9.094;2023-04-25T05:52:59;23.10;57.50
47174;DHT22;36730;49.036;9.094;2023-04-25T05:55:24;23.10;57.70
47174;DHT22;36730;49.036;9.094;2023-04-25T05:57:50;23.10;57.90
47174;DHT22;36730;49.036;9.094;2023-04-25T06:00:15;23.20;58.00
47174;DHT22;36730;49.036;9.094;2023-04-25T06:02:41;23.20;57.80
47174;DHT22;36730;49.036;9.094;2023-04-25T06:05:07;23.20;58.20
47174;DHT22;36730;49.036;9.094;2023-04-25T06:07:33;23.20;57.40
47174;DHT22;36730;49.036;9.094;2023-04-25T06:09:59;23.30;58.40
47174;DHT22;36730;49.036;9.094;2023-04-25T06:12:26;23.30;57.90
47174;DHT22;36730;49.036;9.094;2023-04-25T06:14:51;23.30;57.80
47174;DHT22;36730;49.036;9.094;2023-04-25T06:17:17;23.30;57.80
47174;DHT22;36730;49.036;9.094;2023-04-25T06:19:42;23.30;57.90
47174;DHT22;36730;49.036;9.094;2023-04-25T06:22:08;23.40;57.90
47174;DHT22;36730;49.036;9.094;2023-04-25T06:24:33;23.40;58.10
47174;DHT22;36730;49.036;9.094;2023-04-25T06:26:59;23.40;58.20
47174;DHT22;36730;49.036;9.094;2023-04-25T06:29:25;23.40;58.40
47174;DHT22;36730;49.036;9.094;2023-04-25T06:31:51;23.40;58.70
47174;DHT22;36730;49.036;9.094;2023-04-25T06:34:16;23.40;58.40
47174;DHT22;36730;49.036;9.094;2023-04-25T06:36:42;23.50;58.80
47174;DHT22;36730;49.036;9.094;2023-04-25T06:39:09;23.50;59.00
47174;DHT22;36730;49.036;9.094;2023-04-25T06:41:34;23.50;58.60
47174;DHT22;36730;49.036;9.094;2023-04-25T06:44:00;23.50;58.30
47174;DHT22;36730;49.036;9.094;2023-04-25T06:46:26;23.60;58.20
47174;DHT22;36730;49.036;9.094;2023-04-25T06:48:51;23.60;58.80
47174;DHT22;36730;49.036;9.094;2023-04-25T06:51:17;23.60;58.50
47174;DHT22;36730;49.036;9.094;2023-04-25T06:53:42;23.60;58.60
47174;DHT22;36730;49.036;9.094;2023-04-25T06:56:08;23.60;58.50
47174;DHT22;36730;49.036;9.094;2023-04-25T06:58:33;23.60;58.10
47174;DHT22;36730;49.036;9.094;2023-04-25T07:00:59;23.60;57.30
47174;DHT22;36730;49.036;9.094;2023-04-25T07:03:24;23.60;55.90
47174;DHT22;36730;49.036;9.094;2023-04-25T07:05:50;23.60;55.00
47174;DHT22;36730;49.036;9.094;2023-04-25T07:08:16;23.60;54.10
47174;DHT22;36730;49.036;9.094;2023-04-25T07:10:41;23.60;56.50
47174;DHT22;36730;49.036;9.094;2023-04-25T07:13:07;23.60;56.80
47174;DHT22;36730;49.036;9.094;2023-04-25T07:15:32;23.60;56.10
47174;DHT22;36730;49.036;9.094;2023-04-25T07:17:58;23.60;55.50
47174;DHT22;36730;49.036;9.094;2023-04-25T07:20:24;23.60;55.60
47174;DHT22;36730;49.036;9.094;2023-04-25T07:22:50;23.60;55.40
47174;DHT22;36730;49.036;9.094;2023-04-25T07:25:16;23.60;55.10
47174;DHT22;36730;49.036;9.094;2023-04-25T07:27:41;23.50;55.40
47174;DHT22;36730;49.036;9.094;2023-04-25T07:30:07;23.60;55.20
47174;DHT22;36730;49.036;9.094;2023-04-25T07:32:32;23.60;55.10
47174;DHT22;36730;49.036;9.094;2023-04-25T07:34:58;23.50;54.90
47174;DHT22;36730;49.036;9.094;2023-04-25T07:37:23;23.50;54.50
47174;DHT22;36730;49.036;9.094;2023-04-25T07:39:49;23.60;54.10
47174;DHT22;36730;49.036;9.094;2023-04-25T07:42:14;23.50;55.00
47174;DHT22;36730;49.036;9.094;2023-04-25T07:44:40;23.50;55.10
47174;DHT22;36730;49.036;9.094;2023-04-25T07:47:06;23.50;54.70
47174;DHT22;36730;49.036;9.094;2023-04-25T07:49:35;23.50;54.90
47174;DHT22;36730;49.036;9.094;2023-04-25T07:52:01;23.50;55.10
47174;DHT22;36730;49.036;9.094;2023-04-25T07:54:27;23.50;55.00
47174;DHT22;36730;49.036;9.094;2023-04-25T07:56:52;23.50;55.10
47174;DHT22;36730;49.036;9.094;2023-04-25T07:59:18;23.50;55.30
47174;DHT22;36730;49.036;9.094;2023-04-25T08:01:43;23.60;55.00
47174;DHT22;36730;49.036;9.094;2023-04-25T08:04:08;23.60;54.70
47174;DHT22;36730;49.036;9.094;2023-04-25T08:06:34;23.50;54.00
47174;DHT22;36730;49.036;9.094;2023-04-25T08:09:00;23.60;53.50
47174;DHT22;36730;49.036;9.094;2023-04-25T08:11:25;23.50;54.00
47174;DHT22;36730;49.036;9.094;2023-04-25T08:13:51;23.50;52.70
47174;DHT22;36730;49.036;9.094;2023-04-25T08:16:16;23.40;54.20
47174;DHT22;36730;49.036;9.094;2023-04-25T08:18:42;23.50;55.00
47174;DHT22;36730;49.036;9.094;2023-04-25T08:21:07;23.50;55.00
47174;DHT22;36730;49.036;9.094;2023-04-25T08:23:34;23.50;55.60
47174;DHT22;36730;49.036;9.094;2023-04-25T08:25:59;23.50;55.90
47174;DHT22;36730;49.036;9.094;2023-04-25T08:28:25;23.50;55.90
47174;DHT22;36730;49.036;9.094;2023-04-25T08:30:50;23.50;56.30
47174;DHT22;36730;49.036;9.094;2023-04-25T08:33:16;23.50;55.70
47174;DHT22;36730;49.036;9.094;2023-04-25T08:35:42;23.50;55.90
47174;DHT22;36730;49.036;9.094;2023-04-25T08:38:07;23.60;55.50
47174;DHT22;36730;49.036;9.094;2023-04-25T08:40:34;23.50;55.40
47174;DHT22;36730;49.036;9.094;2023-04-25T08:43:00;23.60;55.40
47174;DHT22;36730;49.036;9.094;2023-04-25T08:45:28;23.60;55.50
47174;DHT22;36730;49.036;9.094;2023-04-25T08:47:56;23.50;55.70
47174;DHT22;36730;49.036;9.094;2023-04-25T08:50:22;23.60;55.70
47174;DHT22;36730;49.036;9.094;2023-04-25T08:52:47;23.60;55.70
47174;DHT22;36730;49.036;9.094;2023-04-25T08:55:14;23.50;56.20
47174;DHT22;36730;49.036;9.094;2023-04-25T08:57:41;23.60;56.40
47174;DHT22;36730;49.036;9.094;2023-04-25T09:00:08;23.60;57.00
47174;DHT22;36730;49.036;9.094;2023-04-25T09:02:34;23.60;56.90
47174;DHT22;36730;49.036;9.094;2023-04-25T09:05:01;23.60;57.80
47174;DHT22;36730;49.036;9.094;2023-04-25T09:07:27;23.50;57.50
47174;DHT22;36730;49.036;9.094;2023-04-25T09:09:53;23.50;57.30
47174;DHT22;36730;49.036;9.094;2023-04-25T09:12:19;23.60;58.00
47174;DHT22;36730;49.036;9.094;2023-04-25T09:15:00;23.60;57.60
47174;DHT22;36730;49.036;9.094;2023-04-25T09:17:26;23.60;57.80
47174;DHT22;36730;49.036;9.094;2023-04-25T09:19:52;23.60;57.50
47174;DHT22;36730;49.036;9.094;2023-04-25T09:22:17;23.60;58.10
47174;DHT22;36730;49.036;9.094;2023-04-25T09:24:46;23.60;58.20
47174;DHT22;36730;49.036;9.094;2023-04-25T09:27:13;23.60;58.70
47174;DHT22;36730;49.036;9.094;2023-04-25T09:29:42;23.60;58.20
47174;DHT22;36730;49.036;9.094;2023-04-25T09:32:11;23.60;58.90
47174;DHT22;36730;49.036;9.094;2023-04-25T09:34:41;23.60;59.10
47174;DHT22;36730;49.036;9.094;2023-04-25T09:37:10;23.60;58.70
47174;DHT22;36730;49.036;9.094;2023-04-25T09:39:36;23.60;58.60
47174;DHT22;36730;49.036;9.094;2023-04-25T09:42:02;23.60;58.80
47174;DHT22;36730;49.036;9.094;2023-04-25T09:44:28;23.60;58.70
47174;DHT22;36730;49.036;9.094;2023-04-25T09:46:53;23.60;59.00
47174;DHT22;36730;49.036;9.094;2023-04-25T09:49:20;23.70;59.20
47174;DHT22;36730;49.036;9.094;2023-04-25T09:51:58;23.60;58.90
47174;DHT22;36730;49.036;9.094;2023-04-25T09:54:26;23.70;58.80
47174;DHT22;36730;49.036;9.094;2023-04-25T09:56:52;23.60;58.70
47174;DHT22;36730;49.036;9.094;2023-04-25T09:59:21;23.70;58.90
47174;DHT22;36730;49.036;9.094;2023-04-25T10:01:49;23.60;58.90
47174;DHT22;36730;49.036;9.094;2023-04-25T10:04:19;23.70;59.40
47174;DHT22;36730;49.036;9.094;2023-04-25T10:06:44;23.60;59.50
47174;DHT22;36730;49.036;9.094;2023-04-25T10:09:11;23.60;59.20
47174;DHT22;36730;49.036;9.094;2023-04-25T10:11:38;23.60;59.20
47174;DHT22;36730;49.036;9.094;2023-04-25T10:14:03;23.70;59.40
47174;DHT22;36730;49.036;9.094;2023-04-25T10:16:30;23.70;59.90
47174;DHT22;36730;49.036;9.094;2023-04-25T10:18:56;23.60;59.70
47174;DHT22;36730;49.036;9.094;2023-04-25T10:21:21;23.60;59.80
47174;DHT22;36730;49.036;9.094;2023-04-25T10:23:47;23.60;60.10
47174;DHT22;36730;49.036;9.094;2023-04-25T10:26:13;23.60;60.30
47174;DHT22;36730;49.036;9.094;2023-04-25T10:28:55;23.60;60.40
47174;DHT22;36730;49.036;9.094;2023-04-25T10:31:21;23.60;60.50
47174;DHT22;36730;49.036;9.094;2023-04-25T10:33:46;23.60;60.50
47174;DHT22;36730;49.036;9.094;2023-04-25T10:36:20;23.60;60.60
47174;DHT22;36730;49.036;9.094;2023-04-25T10:38:47;23.60;60.90
47174;DHT22;36730;49.036;9.094;2023-04-25T10:41:13;23.60;60.30
47174;DHT22;36730;49.036;9.094;2023-04-25T10:43:39;23.60;60.90
47174;DHT22;36730;49.036;9.094;2023-04-25T10:46:15;23.60;61.20
47174;DHT22;36730;49.036;9.094;2023-04-25T10:48:59;23.60;60.80
47174;DHT22;36730;49.036;9.094;2023-04-25T10:51:26;23.60;61.20
47174;DHT22;36730;49.036;9.094;2023-04-25T10:56:21;23.60;61.40
47174;DHT22;36730;49.036;9.094;2023-04-25T10:58:47;23.60;61.60
47174;DHT22;36730;49.036;9.094;2023-04-25T11:01:13;23.60;62.10
47174;DHT22;36730;49.036;9.094;2023-04-25T11:03:40;23.70;61.80
47174;DHT22;36730;49.036;9.094;2023-04-25T11:06:07;23.70;62.00
47174;DHT22;36730;49.036;9.094;2023-04-25T11:08:46;23.70;62.20
47174;DHT22;36730;49.036;9.094;2023-04-25T11:11:12;23.70;62.20
47174;DHT22;36730;49.036;9.094;2023-04-25T11:13:38;23.70;62.20
47174;DHT22;36730;49.036;9.094;2023-04-25T11:16:06;23.70;62.20
47174;DHT22;36730;49.036;9.094;2023-04-25T11:18:32;23.70;62.60
47174;DHT22;36730;49.036;9.094;2023-04-25T11:20:59;23.70;62.20
47174;DHT22;36730;49.036;9.094;2023-04-25T11:23:25;23.80;62.60
47174;DHT22;36730;49.036;9.094;2023-04-25T11:25:51;23.70;62.30
47174;DHT22;36730;49.036;9.094;2023-04-25T11:28:21;23.70;62.30
47174;DHT22;36730;49.036;9.094;2023-04-25T11:30:48;23.70;62.60
47174;DHT22;36730;49.036;9.094;2023-04-25T11:33:13;23.70;62.60
47174;DHT22;36730;49.036;9.094;2023-04-25T11:35:40;23.70;62.40
47174;DHT22;36730;49.036;9.094;2023-04-25T11:38:05;23.70;62.60
47174;DHT22;36730;49.036;9.094;2023-04-25T11:40:31;23.70;62.90
47174;DHT22;36730;49.036;9.094;2023-04-25T11:42:59;23.70;62.80
47174;DHT22;36730;49.036;9.094;2023-04-25T11:45:25;23.70;62.60
47174;DHT22;36730;49.036;9.094;2023-04-25T11:47:50;23.70;62.90
47174;DHT22;36730;49.036;9.094;2023-04-25T11:50:16;23.70;62.70
47174;DHT22;36730;49.036;9.094;2023-04-25T11:52:47;23.70;63.90
47174;DHT22;36730;49.036;9.094;2023-04-25T11:55:13;23.70;62.80
47174;DHT22;36730;49.036;9.094;2023-04-25T11:57:40;23.70;62.80
47174;DHT22;36730;49.036;9.094;2023-04-25T12:00:13;23.80;62.70
47174;DHT22;36730;49.036;9.094;2023-04-25T12:02:42;23.80;63.20
47174;DHT22;36730;49.036;9.094;2023-04-25T12:05:08;23.80;62.90
47174;DHT22;36730;49.036;9.094;2023-04-25T12:07:34;23.80;63.00
47174;DHT22;36730;49.036;9.094;2023-04-25T12:10:03;23.80;63.00
47174;DHT22;36730;49.036;9.094;2023-04-25T12:12:32;23.80;63.40
47174;DHT22;36730;49.036;9.094;2023-04-25T12:15:07;23.80;63.20
47174;DHT22;36730;49.036;9.094;2023-04-25T12:17:33;23.80;62.30
47174;DHT22;36730;49.036;9.094;2023-04-25T12:19:59;23.90;63.10
47174;DHT22;36730;49.036;9.094;2023-04-25T12:22:25;23.90;63.10
47174;DHT22;36730;49.036;9.094;2023-04-25T12:24:50;23.90;63.00
47174;DHT22;36730;49.036;9.094;2023-04-25T12:27:18;24.00;63.40
47174;DHT22;36730;49.036;9.094;2023-04-25T12:29:52;24.00;63.40
47174;DHT22;36730;49.036;9.094;2023-04-25T12:32:18;24.00;63.30
47174;DHT22;36730;49.036;9.094;2023-04-25T12:34:44;24.00;63.20
47174;DHT22;36730;49.036;9.094;2023-04-25T12:37:10;24.00;63.20
47174;DHT22;36730;49.036;9.094;2023-04-25T12:39:35;24.00;63.60
47174;DHT22;36730;49.036;9.094;2023-04-25T12:42:01;24.00;63.80
47174;DHT22;36730;49.036;9.094;2023-04-25T12:44:27;24.00;64.50
47174;DHT22;36730;49.036;9.094;2023-04-25T12:46:52;24.10;64.20
47174;DHT22;36730;49.036;9.094;2023-04-25T12:49:19;24.10;64.20
47174;DHT22;36730;49.036;9.094;2023-04-25T12:51:45;24.20;63.80
47174;DHT22;36730;49.036;9.094;2023-04-25T12:54:10;24.20;64.00
47174;DHT22;36730;49.036;9.094;2023-04-25T12:56:36;24.20;63.30
47174;DHT22;36730;49.036;9.094;2023-04-25T12:59:02;24.20;63.70
47174;DHT22;36730;49.036;9.094;2023-04-25T13:01:30;24.20;63.50
47174;DHT22;36730;49.036;9.094;2023-04-25T13:03:57;24.30;63.60
47174;DHT22;36730;49.036;9.094;2023-04-25T13:06:22;24.30;64.00
47174;DHT22;36730;49.036;9.094;2023-04-25T13:08:48;24.40;63.10
47174;DHT22;36730;49.036;9.094;2023-04-25T13:11:13;24.40;63.40
47174;DHT22;36730;49.036;9.094;2023-04-25T13:13:40;24.40;63.30
47174;DHT22;36730;49.036;9.094;2023-04-25T13:16:05;24.50;63.20
47174;DHT22;36730;49.036;9.094;2023-04-25T13:18:31;24.50;63.20
47174;DHT22;36730;49.036;9.094;2023-04-25T13:20:57;24.50;63.20
47174;DHT22;36730;49.036;9.094;2023-04-25T13:23:24;24.50;63.10
47174;DHT22;36730;49.036;9.094;2023-04-25T13:25:49;24.50;63.00
47174;DHT22;36730;49.036;9.094;2023-04-25T13:28:15;24.60;62.90
47174;DHT22;36730;49.036;9.094;2023-04-25T13:30:41;24.60;63.00
47174;DHT22;36730;49.036;9.094;2023-04-25T13:33:06;24.60;62.60
47174;DHT22;36730;49.036;9.094;2023-04-25T13:35:32;24.60;62.60
47174;DHT22;36730;49.036;9.094;2023-04-25T13:37:58;24.60;61.90
47174;DHT22;36730;49.036;9.094;2023-04-25T13:40:23;24.60;61.80
47174;DHT22;36730;49.036;9.094;2023-04-25T13:42:49;24.60;61.70
47174;DHT22;36730;49.036;9.094;2023-04-25T13:45:16;24.60;62.10
47174;DHT22;36730;49.036;9.094;2023-04-25T13:47:41;24.60;62.20
47174;DHT22;36730;49.036;9.094;2023-04-25T13:50:07;24.60;62.30
47174;DHT22;36730;49.036;9.094;2023-04-25T13:52:33;24.60;62.30
47174;DHT22;36730;49.036;9.094;2023-04-25T13:54:58;24.60;62.00
47174;DHT22;36730;49.036;9.094;2023-04-25T13:57:24;24.70;62.60
47174;DHT22;36730;49.036;9.094;2023-04-25T13:59:50;24.60;61.80
47174;DHT22;36730;49.036;9.094;2023-04-25T14:02:16;24.60;61.80
47174;DHT22;36730;49.036;9.094;2023-04-25T14:04:41;24.70;61.70
47174;DHT22;36730;49.036;9.094;2023-04-25T14:07:07;24.60;61.60
47174;DHT22;36730;49.036;9.094;2023-04-25T14:09:32;24.70;61.50
47174;DHT22;36730;49.036;9.094;2023-04-25T14:11:58;24.60;60.90
47174;DHT22;36730;49.036;9.094;2023-04-25T14:14:23;24.60;61.00
47174;DHT22;36730;49.036;9.094;2023-04-25T14:16:49;24.70;61.10
47174;DHT22;36730;49.036;9.094;2023-04-25T14:19:16;24.60;60.80
47174;DHT22;36730;49.036;9.094;2023-04-25T14:21:41;24.60;61.00
47174;DHT22;36730;49.036;9.094;2023-04-25T14:24:07;24.60;60.70
47174;DHT22;36730;49.036;9.094;2023-04-25T14:26:33;24.60;60.80
47174;DHT22;36730;49.036;9.094;2023-04-25T14:28:59;24.70;60.80
47174;DHT22;36730;49.036;9.094;2023-04-25T14:31:25;24.70;60.80
47174;DHT22;36730;49.036;9.094;2023-04-25T14:33:50;24.70;60.80
47174;DHT22;36730;49.036;9.094;2023-04-25T14:36:16;24.70;60.80
47174;DHT22;36730;49.036;9.094;2023-04-25T14:38:41;24.70;60.90
47174;DHT22;36730;49.036;9.094;2023-04-25T14:41:07;24.70;60.80
47174;DHT22;36730;49.036;9.094;2023-04-25T14:43:32;24.70;60.70
47174;DHT22;36730;49.036;9.094;2023-04-25T14:45:58;24.70;60.60
47174;DHT22;36730;49.036;9.094;2023-04-25T14:48:23;24.70;60.60
47174;DHT22;36730;49.036;9.094;2023-04-25T14:50:49;24.70;60.60
47174;DHT22;36730;49.036;9.094;2023-04-25T14:53:14;24.80;60.60
47174;DHT22;36730;49.036;9.094;2023-04-25T14:55:40;24.80;60.50
47174;DHT22;36730;49.036;9.094;2023-04-25T14:58:06;24.80;60.50
47174;DHT22;36730;49.036;9.094;2023-04-25T15:00:32;24.80;60.40
47174;DHT22;36730;49.036;9.094;2023-04-25T15:02:58;24.80;60.40
47174;DHT22;36730;49.036;9.094;2023-04-25T15:05:23;24.80;60.30
47174;DHT22;36730;49.036;9.094;2023-04-25T15:07:49;24.80;60.30
47174;DHT22;36730;49.036;9.094;2023-04-25T15:10:16;24.80;60.30
47174;DHT22;36730;49.036;9.094;2023-04-25T15:12:45;24.80;60.00
47174;DHT22;36730;49.036;9.094;2023-04-25T15:15:11;24.80;59.90
47174;DHT22;36730;49.036;9.094;2023-04-25T15:17:46;24.80;59.70
47174;DHT22;36730;49.036;9.094;2023-04-25T15:20:12;24.90;59.90
47174;DHT22;36730;49.036;9.094;2023-04-25T15:22:41;24.80;59.60
47174;DHT22;36730;49.036;9.094;2023-04-25T15:25:07;24.80;59.50